Time;durP1;ratioP1;P1;durP2;ratioP2;P2;SDS_P1;SDS_P2;PMS_P1;PMS_P2;Temp;Humidity;BMP_temperature;BMP_pressure;BME280_temperature;BME280_humidity;BME280_pressure;Samples;Min_cycle;Max_cycle;Signal;HPM_P1;HPM_P2
2023/06/30 00:01:58;;;;;;;17.70;17.13;;;22.80;99.90;;;;;;5012259;28;20477;-62
2023/06/30 00:04:27;;;;;;;17.90;17.30;;;22.70;99.90;;;;;;5011561;28;21027;-62
2023/06/30 00:06:56;;;;;;;17.60;17.00;;;22.70;99.90;;;;;;5012031;28;20829;-62
2023/06/30 00:09:24;;;;;;;17.40;16.80;;;22.60;99.90;;;;;;5012134;28;20561;-63
2023/06/30 00:11:52;;;;;;;18.37;17.77;;;22.50;99.90;;;;;;5012093;28;20858;-62
2023/06/30 00:14:19;;;;;;;17.07;16.57;;;22.60;99.90;;;;;;5011860;28;20859;-63
2023/06/30 00:16:46;;;;;;;17.47;16.97;;;22.50;99.90;;;;;;5011786;28;20493;-62
2023/06/30 00:19:13;;;;;;;17.50;16.63;;;22.60;99.90;;;;;;5011831;28;20534;-62
2023/06/30 00:21:41;;;;;;;18.13;17.53;;;22.60;99.90;;;;;;5012014;28;20488;-62
2023/06/30 00:24:10;;;;;;;17.13;16.63;;;22.50;99.90;;;;;;5011573;28;20477;-63
2023/06/30 00:26:37;;;;;;;16.97;16.37;;;22.60;99.90;;;;;;5011788;28;20851;-62
2023/06/30 00:29:04;;;;;;;17.70;17.10;;;22.50;99.90;;;;;;5011736;28;20581;-62
2023/06/30 00:31:31;;;;;;;18.80;18.10;;;22.40;99.90;;;;;;5011725;28;20570;-62
2023/06/30 00:33:58;;;;;;;19.23;18.53;;;22.50;99.90;;;;;;5011247;28;20537;-62
2023/06/30 00:36:25;;;;;;;19.17;18.37;;;22.50;99.90;;;;;;5011470;28;20534;-62
2023/06/30 00:38:54;;;;;;;18.50;17.80;;;22.60;99.90;;;;;;5011629;28;20465;-62
2023/06/30 00:41:22;;;;;;;17.80;17.20;;;22.60;99.90;;;;;;5011563;28;20454;-62
2023/06/30 00:43:49;;;;;;;17.53;17.03;;;22.40;99.90;;;;;;5011460;28;20569;-63
2023/06/30 00:46:17;;;;;;;18.73;18.13;;;22.50;99.90;;;;;;5011450;28;20536;-63
2023/06/30 00:48:45;;;;;;;19.40;18.70;;;22.40;99.90;;;;;;5011574;28;20569;-64
2023/06/30 00:51:14;;;;;;;18.50;17.90;;;22.30;99.90;;;;;;5011342;28;20973;-64
2023/06/30 00:53:41;;;;;;;18.30;17.70;;;22.40;99.90;;;;;;5011037;28;20469;-65
2023/06/30 00:56:08;;;;;;;18.10;17.50;;;22.30;99.90;;;;;;5011525;28;20468;-65
2023/06/30 00:58:37;;;;;;;19.40;18.70;;;22.30;99.90;;;;;;5011540;28;20808;-64
2023/06/30 01:01:11;;;;;;;18.10;17.50;;;22.20;99.90;;;;;;5011283;28;20532;-63
2023/06/30 01:03:43;;;;;;;18.20;17.60;;;22.10;99.90;;;;;;5011983;28;20906;-62
2023/06/30 01:06:17;;;;;;;19.27;18.57;;;22.10;99.90;;;;;;5011508;28;20760;-63
2023/06/30 01:08:49;;;;;;;18.23;17.63;;;22.10;99.90;;;;;;5011361;28;20924;-62
2023/06/30 01:11:17;;;;;;;18.07;17.47;;;22.10;99.90;;;;;;5011218;28;20824;-61
2023/06/30 01:13:47;;;;;;;18.47;17.77;;;22.10;99.90;;;;;;5011360;28;20549;-63
2023/06/30 01:16:16;;;;;;;18.80;17.90;;;22.00;99.90;;;;;;5011096;28;20541;-63
2023/06/30 01:18:45;;;;;;;18.10;17.50;;;22.10;99.90;;;;;;5011370;28;20532;-62
2023/06/30 01:21:14;;;;;;;18.90;18.10;;;22.10;99.90;;;;;;5011060;28;20486;-63
2023/06/30 01:23:48;;;;;;;18.90;18.20;;;22.10;99.90;;;;;;5011231;28;20469;-63
2023/06/30 01:26:16;;;;;;;19.77;18.60;;;22.00;99.90;;;;;;5011224;28;20446;-63
2023/06/30 01:28:43;;;;;;;18.87;18.17;;;22.10;99.90;;;;;;5011126;28;20484;-63
2023/06/30 01:31:12;;;;;;;20.00;19.30;;;22.10;99.90;;;;;;5010993;28;20481;-63
2023/06/30 01:33:40;;;;;;;19.07;18.27;;;22.10;99.90;;;;;;5011108;28;20500;-63
2023/06/30 01:36:08;;;;;;;18.40;17.80;;;22.00;99.90;;;;;;5010767;28;20504;-63
2023/06/30 01:38:35;;;;;;;19.37;18.70;;;22.00;99.90;;;;;;5011162;28;20453;-62
2023/06/30 01:41:04;;;;;;;18.27;17.40;;;21.90;99.90;;;;;;5011003;28;20481;-62
2023/06/30 01:43:32;;;;;;;19.07;18.37;;;21.90;99.90;;;;;;4991576;28;20477;-62
2023/06/30 01:45:59;;;;;;;18.07;17.47;;;21.90;99.90;;;;;;4991468;28;20543;-61
2023/06/30 01:48:28;;;;;;;19.13;18.53;;;22.00;99.90;;;;;;4991459;28;20454;-62
2023/06/30 01:50:56;;;;;;;18.43;17.63;;;21.90;99.90;;;;;;4991417;28;20566;-62
2023/06/30 01:53:24;;;;;;;18.27;17.67;;;21.90;99.90;;;;;;5011887;28;20512;-63
2023/06/30 01:55:54;;;;;;;19.83;18.73;;;21.90;99.90;;;;;;5014587;28;20449;-63
2023/06/30 01:58:21;;;;;;;18.47;17.77;;;21.90;99.90;;;;;;5014422;28;20857;-63
2023/06/30 02:00:48;;;;;;;18.93;18.23;;;22.00;99.90;;;;;;5013760;28;20613;-63
2023/06/30 02:03:15;;;;;;;18.83;18.23;;;22.00;99.90;;;;;;5014393;28;21028;-62
2023/06/30 02:05:43;;;;;;;18.93;18.20;;;21.90;99.90;;;;;;5014181;28;20542;-63
2023/06/30 02:08:10;;;;;;;18.87;18.10;;;21.90;99.90;;;;;;5014239;28;20674;-62
2023/06/30 02:10:37;;;;;;;19.43;18.53;;;21.90;99.90;;;;;;5013862;28;20918;-62
2023/06/30 02:13:04;;;;;;;18.30;17.40;;;22.00;99.90;;;;;;5014157;28;20887;-63
2023/06/30 02:15:30;;;;;;;18.40;17.80;;;21.90;99.90;;;;;;5014189;28;20545;-63
2023/06/30 02:17:57;;;;;;;19.37;18.50;;;22.00;99.90;;;;;;5013995;28;20888;-62
2023/06/30 02:20:24;;;;;;;18.47;17.87;;;21.90;99.90;;;;;;5013957;28;20542;-63
2023/06/30 02:22:53;;;;;;;19.40;18.70;;;21.90;99.90;;;;;;5013991;28;20450;-63
2023/06/30 02:25:20;;;;;;;18.37;17.77;;;21.90;99.90;;;;;;5014063;28;20449;-63
2023/06/30 02:27:47;;;;;;;18.03;17.43;;;21.90;99.90;;;;;;5013806;28;20524;-61
2023/06/30 02:30:14;;;;;;;19.30;18.50;;;21.80;99.90;;;;;;5013872;28;20524;-60
2023/06/30 02:32:41;;;;;;;18.27;17.67;;;21.90;99.90;;;;;;5013895;28;20834;-62
2023/06/30 02:35:09;;;;;;;18.80;18.17;;;21.90;99.90;;;;;;5013814;28;20552;-63
2023/06/30 02:37:36;;;;;;;19.93;19.13;;;21.80;99.90;;;;;;5013611;28;20442;-62
2023/06/30 02:40:06;;;;;;;19.10;18.33;;;21.80;99.90;;;;;;5013470;28;20880;-63
2023/06/30 02:42:32;;;;;;;19.63;18.93;;;21.80;99.90;;;;;;5013691;28;20446;-61
2023/06/30 02:44:59;;;;;;;19.70;19.03;;;21.80;99.90;;;;;;5013602;28;20557;-62
2023/06/30 02:47:26;;;;;;;19.13;18.43;;;21.80;99.90;;;;;;5013424;28;20528;-62
2023/06/30 02:49:53;;;;;;;19.10;18.40;;;21.70;99.90;;;;;;5013260;28;20581;-63
2023/06/30 02:52:20;;;;;;;19.33;18.53;;;21.70;99.90;;;;;;5013578;28;20445;-63
2023/06/30 02:54:47;;;;;;;20.00;19.30;;;21.80;99.90;;;;;;5013428;28;20852;-63
2023/06/30 02:57:15;;;;;;;19.80;18.90;;;21.70;99.90;;;;;;5013225;28;20858;-63
2023/06/30 02:59:42;;;;;;;19.60;18.70;;;21.70;99.90;;;;;;5013150;28;20481;-61
2023/06/30 03:02:09;;;;;;;19.23;18.40;;;21.70;99.90;;;;;;5013451;28;20453;-63
2023/06/30 03:04:36;;;;;;;19.20;18.50;;;21.60;99.90;;;;;;5013214;28;20553;-63
2023/06/30 03:07:03;;;;;;;19.33;18.63;;;21.60;99.90;;;;;;5012824;28;20528;-62
2023/06/30 03:09:29;;;;;;;19.53;18.73;;;21.60;99.90;;;;;;5013306;28;20933;-63
2023/06/30 03:11:56;;;;;;;19.37;18.63;;;21.60;99.90;;;;;;5013237;28;20979;-63
2023/06/30 03:14:25;;;;;;;19.80;19.10;;;21.50;99.90;;;;;;5013100;28;20474;-62
2023/06/30 03:16:51;;;;;;;19.90;19.00;;;21.50;99.90;;;;;;5012725;28;20489;-63
2023/06/30 03:19:18;;;;;;;19.70;18.80;;;21.50;99.90;;;;;;5013072;28;20478;-63
2023/06/30 03:21:45;;;;;;;20.17;19.37;;;21.50;99.90;;;;;;5012980;28;20484;-63
2023/06/30 03:24:12;;;;;;;19.60;18.87;;;21.60;99.90;;;;;;5012973;28;20553;-63
2023/06/30 03:26:39;;;;;;;19.43;18.70;;;21.50;99.90;;;;;;5012451;28;21758;-63
2023/06/30 03:29:06;;;;;;;18.90;18.20;;;21.50;99.90;;;;;;5012736;28;20537;-63
2023/06/30 03:31:34;;;;;;;19.90;18.93;;;21.50;99.90;;;;;;5012668;28;20576;-63
2023/06/30 03:34:01;;;;;;;20.40;19.60;;;21.40;99.90;;;;;;5012718;28;20571;-62
2023/06/30 03:36:28;;;;;;;19.40;18.60;;;21.40;99.90;;;;;;5012310;28;20450;-63
2023/06/30 03:38:54;;;;;;;20.00;19.13;;;21.40;99.90;;;;;;5012591;28;20533;-62
2023/06/30 03:41:21;;;;;;;19.97;19.17;;;21.40;99.90;;;;;;5012626;28;20532;-62
2023/06/30 03:43:48;;;;;;;20.70;19.80;;;21.30;99.90;;;;;;5012467;28;20472;-62
2023/06/30 03:46:15;;;;;;;20.70;19.83;;;21.30;99.90;;;;;;5012406;28;20477;-63
2023/06/30 03:48:43;;;;;;;19.70;18.80;;;21.40;99.90;;;;;;5012248;28;20508;-63
2023/06/30 03:51:10;;;;;;;20.17;19.37;;;21.40;99.90;;;;;;5012472;28;20568;-63
2023/06/30 03:53:37;;;;;;;20.40;19.70;;;21.40;99.90;;;;;;5012317;28;20497;-63
2023/06/30 03:56:04;;;;;;;19.73;18.93;;;21.50;99.90;;;;;;5012228;28;20529;-63
2023/06/30 03:58:32;;;;;;;21.07;20.20;;;21.50;99.90;;;;;;5011981;28;20531;-63
2023/06/30 04:00:59;;;;;;;20.27;19.37;;;21.60;99.90;;;;;;5012270;28;20442;-60
2023/06/30 04:03:26;;;;;;;19.97;19.17;;;21.60;99.90;;;;;;5012070;28;20565;-59
2023/06/30 04:05:54;;;;;;;20.57;19.57;;;21.60;99.90;;;;;;5011952;28;20522;-63
2023/06/30 04:08:21;;;;;;;21.47;20.47;;;21.60;99.90;;;;;;5012133;28;20533;-63
2023/06/30 04:10:49;;;;;;;20.57;19.87;;;21.50;99.90;;;;;;5011939;28;20543;-61
2023/06/30 04:13:15;;;;;;;20.77;19.97;;;21.50;99.90;;;;;;5011561;28;20470;-64
2023/06/30 04:15:42;;;;;;;22.60;21.60;;;21.50;99.90;;;;;;5011696;28;20525;-61
2023/06/30 04:18:09;;;;;;;20.93;20.00;;;21.50;99.90;;;;;;5011820;28;20532;-63
2023/06/30 04:20:36;;;;;;;21.50;20.50;;;21.50;99.90;;;;;;5012004;28;20541;-63
2023/06/30 04:23:04;;;;;;;22.00;21.10;;;21.50;99.90;;;;;;5011673;28;20533;-64
2023/06/30 04:25:31;;;;;;;22.00;21.10;;;21.50;99.90;;;;;;5011646;28;20477;-59
2023/06/30 04:27:58;;;;;;;21.43;20.50;;;21.40;99.90;;;;;;5011738;28;20589;-62
2023/06/30 04:30:25;;;;;;;21.60;20.60;;;21.40;99.90;;;;;;5011857;28;20571;-61
2023/06/30 04:32:52;;;;;;;21.97;21.27;;;21.30;99.90;;;;;;5011448;28;20546;-59
2023/06/30 04:35:19;;;;;;;21.17;20.37;;;21.30;99.90;;;;;;5011793;28;20449;-60
2023/06/30 04:37:45;;;;;;;22.93;21.80;;;21.30;99.90;;;;;;5011571;28;20529;-62
2023/06/30 04:40:14;;;;;;;21.80;20.93;;;21.30;99.90;;;;;;5011701;28;20881;-63
2023/06/30 04:42:41;;;;;;;22.60;21.60;;;21.20;99.90;;;;;;5011490;28;20590;-61
2023/06/30 04:45:08;;;;;;;20.77;19.97;;;21.30;99.90;;;;;;5011079;28;20497;-64
2023/06/30 04:47:35;;;;;;;21.70;20.80;;;21.30;99.90;;;;;;5011326;28;20525;-62
2023/06/30 04:50:02;;;;;;;22.67;21.70;;;21.40;99.90;;;;;;5011730;28;20576;-64
2023/06/30 04:52:29;;;;;;;22.47;21.67;;;21.50;99.90;;;;;;5011541;28;20450;-64
2023/06/30 04:54:57;;;;;;;22.37;21.67;;;21.50;99.90;;;;;;5011379;28;20465;-63
2023/06/30 04:57:26;;;;;;;22.50;21.50;;;21.50;99.90;;;;;;5011441;28;20449;-60
2023/06/30 04:59:54;;;;;;;21.83;21.00;;;21.60;99.90;;;;;;5011404;28;20508;-64
2023/06/30 05:02:21;;;;;;;21.73;20.93;;;21.60;99.90;;;;;;5011554;28;20504;-63
2023/06/30 05:04:49;;;;;;;22.53;21.47;;;21.60;99.90;;;;;;5011404;28;20572;-64
2023/06/30 05:07:16;;;;;;;21.10;20.10;;;21.60;99.90;;;;;;5011343;28;20869;-64
2023/06/30 05:09:42;;;;;;;21.87;21.07;;;21.70;99.90;;;;;;5011411;28;20989;-64
2023/06/30 05:12:09;;;;;;;21.90;20.90;;;21.70;99.90;;;;;;5011465;28;20533;-65
2023/06/30 05:14:38;;;;;;;22.87;22.07;;;21.70;99.90;;;;;;5011351;28;20552;-64
2023/06/30 05:17:05;;;;;;;23.40;22.60;;;21.70;99.90;;;;;;5011143;28;20484;-64
2023/06/30 05:19:32;;;;;;;23.67;22.37;;;21.70;99.90;;;;;;5011569;28;20532;-64
2023/06/30 05:21:58;;;;;;;22.20;21.20;;;21.70;99.90;;;;;;5011311;28;20478;-64
2023/06/30 05:24:25;;;;;;;23.50;22.63;;;21.70;99.90;;;;;;5011191;28;20544;-65
2023/06/30 05:26:53;;;;;;;24.97;23.30;;;21.70;99.90;;;;;;5011107;28;20548;-64
2023/06/30 05:29:20;;;;;;;21.10;20.20;;;21.70;99.90;;;;;;5014180;28;20476;-64
2023/06/30 05:31:49;;;;;;;21.63;20.83;;;21.70;99.90;;;;;;5014954;28;20536;-65
2023/06/30 05:34:15;;;;;;;23.10;22.07;;;21.70;99.90;;;;;;5014841;28;20646;-65
2023/06/30 05:36:44;;;;;;;21.93;21.03;;;21.80;99.90;;;;;;5014926;28;20488;-64
2023/06/30 05:39:11;;;;;;;23.03;22.03;;;21.80;99.90;;;;;;5014872;28;20449;-61
2023/06/30 05:41:38;;;;;;;21.80;20.87;;;21.80;99.90;;;;;;5014837;28;20442;-65
2023/06/30 05:44:06;;;;;;;22.47;21.60;;;21.80;99.90;;;;;;5014916;28;20861;-64
2023/06/30 05:46:34;;;;;;;23.73;22.53;;;21.80;99.90;;;;;;5014653;28;20807;-64
2023/06/30 05:49:05;;;;;;;24.17;23.07;;;21.80;99.90;;;;;;5014819;28;20480;-63
2023/06/30 05:51:32;;;;;;;22.70;21.90;;;21.80;99.90;;;;;;5014578;28;20941;-63
2023/06/30 05:53:59;;;;;;;22.70;21.90;;;21.80;99.90;;;;;;5014537;28;20504;-63
2023/06/30 05:56:26;;;;;;;22.70;21.70;;;21.90;99.90;;;;;;5014449;28;20541;-63
2023/06/30 05:58:52;;;;;;;21.53;20.73;;;21.80;99.90;;;;;;5014551;28;20536;-64
2023/06/30 06:01:20;;;;;;;23.70;22.77;;;21.80;99.90;;;;;;5014581;28;20518;-64
2023/06/30 06:03:47;;;;;;;23.10;22.23;;;21.90;99.90;;;;;;5014307;28;20907;-64
2023/06/30 06:06:15;;;;;;;23.57;22.67;;;21.90;99.90;;;;;;5014428;28;20528;-64
2023/06/30 06:08:46;;;;;;;24.40;23.50;;;21.80;99.90;;;;;;5014378;28;20537;-64
2023/06/30 06:11:14;;;;;;;25.43;24.27;;;21.80;99.90;;;;;;5014201;28;20489;-64
2023/06/30 06:13:41;;;;;;;24.50;23.60;;;21.80;99.70;;;;;;5014243;28;20553;-63
2023/06/30 06:16:08;;;;;;;24.20;22.80;;;21.90;99.50;;;;;;5014168;28;20876;-63
2023/06/30 06:18:35;;;;;;;24.17;23.27;;;21.90;99.10;;;;;;5014120;28;20528;-64
2023/06/30 06:21:04;;;;;;;23.40;22.40;;;21.90;98.90;;;;;;5014538;28;20854;-63
2023/06/30 06:23:32;;;;;;;23.97;22.63;;;21.80;98.80;;;;;;5013958;28;20477;-63
2023/06/30 06:25:59;;;;;;;22.97;22.10;;;21.90;98.80;;;;;;5013926;28;20528;-64
2023/06/30 06:28:26;;;;;;;23.30;22.20;;;21.90;98.70;;;;;;5013883;28;20473;-63
2023/06/30 06:30:53;;;;;;;25.07;23.87;;;21.90;98.50;;;;;;5013815;28;20477;-64
2023/06/30 06:33:20;;;;;;;24.60;23.53;;;21.90;98.30;;;;;;5013909;28;20905;-64
2023/06/30 06:35:47;;;;;;;23.20;22.30;;;21.90;98.00;;;;;;5013950;28;20552;-62
2023/06/30 06:38:17;;;;;;;23.90;22.80;;;21.90;97.80;;;;;;5013704;28;20529;-63
2023/06/30 06:40:46;;;;;;;24.13;23.00;;;21.90;97.50;;;;;;5013802;28;20442;-63
2023/06/30 06:43:13;;;;;;;23.40;22.50;;;21.90;97.20;;;;;;5013614;28;20565;-64
2023/06/30 06:45:41;;;;;;;23.80;22.90;;;21.90;97.10;;;;;;5013642;28;20972;-64
2023/06/30 06:48:22;;;;;;;22.87;21.97;;;21.90;97.20;;;;;;5013414;28;20450;-64
2023/06/30 06:50:50;;;;;;;23.10;22.00;;;21.90;97.30;;;;;;5013479;28;20581;-62
2023/06/30 06:53:21;;;;;;;23.97;22.93;;;21.90;97.10;;;;;;5013369;28;20556;-62
2023/06/30 06:55:51;;;;;;;22.00;21.20;;;21.90;96.80;;;;;;5013735;28;20541;-64
2023/06/30 06:58:18;;;;;;;22.83;21.70;;;21.90;96.50;;;;;;5013208;28;20537;-64
2023/06/30 07:00:46;;;;;;;23.03;21.90;;;21.90;96.30;;;;;;5013366;28;20532;-64
2023/06/30 07:03:13;;;;;;;23.77;22.43;;;21.90;96.10;;;;;;5039649;23;20560;-60
2023/06/30 07:05:40;;;;;;;24.13;23.13;;;21.90;95.80;;;;;;5031779;28;20536;-62
2023/06/30 07:08:08;;;;;;;23.10;22.20;;;22.00;95.80;;;;;;5032962;28;20999;-59
2023/06/30 07:10:35;;;;;;;23.37;22.47;;;22.00;95.80;;;;;;5033161;28;20532;-60
2023/06/30 07:13:04;;;;;;;23.60;22.40;;;21.90;95.60;;;;;;5033063;28;20544;-61
2023/06/30 07:15:31;;;;;;;23.20;22.30;;;22.00;95.70;;;;;;5032927;28;20469;-62
2023/06/30 07:17:58;;;;;;;22.97;21.90;;;21.90;95.60;;;;;;5032882;28;20540;-62
2023/06/30 07:20:26;;;;;;;25.53;24.20;;;21.90;95.60;;;;;;5032937;28;20529;-61
2023/06/30 07:22:54;;;;;;;23.33;22.23;;;22.00;95.30;;;;;;5032827;28;20761;-62
2023/06/30 07:25:22;;;;;;;22.70;21.83;;;22.00;95.10;;;;;;5032777;28;20536;-62
2023/06/30 07:27:53;;;;;;;23.27;22.07;;;22.00;94.90;;;;;;5032719;28;20572;-61
2023/06/30 07:30:22;;;;;;;23.47;22.50;;;22.00;94.50;;;;;;5032892;28;20456;-62
2023/06/30 07:32:49;;;;;;;24.50;23.20;;;22.00;94.00;;;;;;5032656;28;20547;-61
2023/06/30 07:35:17;;;;;;;22.93;22.13;;;22.00;93.90;;;;;;5032591;28;20469;-62
2023/06/30 07:37:44;;;;;;;22.40;21.60;;;22.00;93.70;;;;;;5032409;28;20460;-62
2023/06/30 07:40:12;;;;;;;23.40;22.43;;;22.00;93.00;;;;;;5032567;28;20464;-62
2023/06/30 07:42:39;;;;;;;23.53;22.63;;;22.00;92.90;;;;;;5032570;28;20473;-59
2023/06/30 07:45:09;;;;;;;23.13;21.93;;;22.00;92.70;;;;;;5032461;28;20560;-61
2023/06/30 07:47:39;;;;;;;23.27;22.27;;;22.00;92.50;;;;;;5032132;28;20444;-62
2023/06/30 07:50:09;;;;;;;22.50;21.60;;;22.00;92.50;;;;;;5032062;28;20445;-62
2023/06/30 07:52:37;;;;;;;22.20;21.40;;;22.00;92.50;;;;;;5032019;28;20991;-63
2023/06/30 07:55:05;;;;;;;22.17;21.33;;;22.00;92.20;;;;;;5032401;28;20480;-61
2023/06/30 07:57:32;;;;;;;23.70;22.70;;;22.00;91.80;;;;;;5032075;28;20454;-62
2023/06/30 07:59:59;;;;;;;22.13;21.33;;;22.00;91.60;;;;;;5032250;28;20869;-61
2023/06/30 08:02:26;;;;;;;23.70;22.80;;;22.00;91.50;;;;;;5032125;28;20870;-62
2023/06/30 08:04:54;;;;;;;21.17;20.37;;;22.00;91.20;;;;;;5031936;28;20991;-61
2023/06/30 08:07:21;;;;;;;23.27;22.37;;;22.00;90.70;;;;;;5031829;28;20528;-62
2023/06/30 08:09:47;;;;;;;21.80;21.07;;;22.00;90.40;;;;;;5032195;28;20441;-62
2023/06/30 08:12:15;;;;;;;22.50;21.50;;;22.00;90.00;;;;;;5031965;28;20563;-62
2023/06/30 08:14:42;;;;;;;23.03;22.13;;;22.00;88.90;;;;;;5031879;28;20557;-62
2023/06/30 08:17:09;;;;;;;23.70;22.70;;;22.00;87.80;;;;;;5031643;28;20445;-62
2023/06/30 08:19:41;;;;;;;22.80;21.97;;;22.00;86.90;;;;;;5031962;28;20529;-61
2023/06/30 08:22:13;;;;;;;22.80;21.80;;;22.00;86.20;;;;;;5031899;28;20458;-62
2023/06/30 08:24:40;;;;;;;23.20;22.40;;;22.00;85.90;;;;;;5031736;28;20499;-62
2023/06/30 08:27:07;;;;;;;22.63;21.83;;;22.00;86.20;;;;;;5031599;28;20531;-62
2023/06/30 08:29:34;;;;;;;22.77;21.87;;;22.00;85.40;;;;;;5031672;28;20544;-62
2023/06/30 08:32:02;;;;;;;23.33;22.43;;;22.00;85.10;;;;;;5031589;28;20576;-61
2023/06/30 08:34:29;;;;;;;22.53;21.63;;;22.00;84.40;;;;;;5031611;28;20481;-61
2023/06/30 08:36:56;;;;;;;23.73;22.50;;;22.00;83.90;;;;;;5031444;28;20506;-62
2023/06/30 08:39:27;;;;;;;22.00;21.10;;;22.00;83.90;;;;;;5031580;28;20476;-60
2023/06/30 08:41:55;;;;;;;22.13;21.23;;;22.00;83.00;;;;;;5031595;28;20528;-61
2023/06/30 08:44:24;;;;;;;22.97;21.97;;;22.00;82.40;;;;;;5031436;28;20500;-61
2023/06/30 08:46:52;;;;;;;23.07;22.27;;;22.00;81.90;;;;;;5031247;28;20536;-62
2023/06/30 08:49:21;;;;;;;22.87;21.97;;;22.00;81.60;;;;;;5031369;28;20455;-62
2023/06/30 08:51:48;;;;;;;23.00;22.00;;;22.00;81.30;;;;;;5031377;28;20576;-61
2023/06/30 08:54:15;;;;;;;23.63;22.73;;;22.00;81.50;;;;;;5031296;28;20473;-60
2023/06/30 08:56:44;;;;;;;23.63;22.73;;;22.00;81.30;;;;;;5031267;28;20970;-60
2023/06/30 08:59:11;;;;;;;24.07;23.07;;;22.00;80.80;;;;;;5031264;28;20491;-61
2023/06/30 09:01:39;;;;;;;22.50;21.70;;;22.00;80.60;;;;;;5031689;28;20524;-62
2023/06/30 09:04:06;;;;;;;22.90;22.10;;;22.00;80.20;;;;;;5035396;28;21079;-61
2023/06/30 09:06:34;;;;;;;22.60;21.80;;;22.00;81.20;;;;;;5035247;28;20869;-61
2023/06/30 09:09:06;;;;;;;23.37;22.53;;;22.00;80.50;;;;;;5035400;28;20883;-60
2023/06/30 09:11:34;;;;;;;23.10;22.20;;;22.10;79.80;;;;;;5035314;28;20489;-61
2023/06/30 09:14:04;;;;;;;22.30;21.50;;;22.10;79.50;;;;;;5035279;28;20975;-60
2023/06/30 09:16:31;;;;;;;22.47;21.67;;;22.10;79.50;;;;;;5035138;28;20503;-61
2023/06/30 09:18:59;;;;;;;23.13;22.23;;;22.10;80.10;;;;;;5035136;28;20532;-61
2023/06/30 09:21:26;;;;;;;23.47;22.37;;;22.10;79.00;;;;;;5035186;28;20537;-61
2023/06/30 09:23:52;;;;;;;23.57;22.77;;;22.10;78.70;;;;;;5035074;28;20547;-60
2023/06/30 09:26:19;;;;;;;23.30;22.20;;;22.10;77.80;;;;;;5034835;28;20491;-62
2023/06/30 09:28:46;;;;;;;23.10;22.30;;;22.10;77.90;;;;;;5034990;28;20479;-61
2023/06/30 09:31:15;;;;;;;23.90;23.00;;;22.10;78.00;;;;;;5034834;28;20544;-58
2023/06/30 09:33:47;;;;;;;22.80;22.00;;;22.10;77.90;;;;;;5034924;28;20552;-58
2023/06/30 09:36:18;;;;;;;22.50;21.70;;;22.10;77.90;;;;;;5034728;28;20440;-59
2023/06/30 09:38:45;;;;;;;22.00;21.20;;;22.20;78.10;;;;;;5034787;28;20448;-60
2023/06/30 09:41:20;;;;;;;22.10;21.30;;;22.20;78.30;;;;;;5034822;28;20535;-60
2023/06/30 09:43:48;;;;;;;22.80;22.00;;;22.20;78.40;;;;;;5034734;28;20499;-59
2023/06/30 09:46:20;;;;;;;22.07;21.27;;;22.20;77.70;;;;;;5034490;28;20940;-57
2023/06/30 09:48:47;;;;;;;22.80;21.70;;;22.20;75.40;;;;;;5034615;28;20476;-58
2023/06/30 09:51:19;;;;;;;23.50;22.60;;;22.20;74.60;;;;;;5034427;28;20544;-60
2023/06/30 09:53:46;;;;;;;23.80;22.67;;;22.20;74.40;;;;;;5034547;28;20469;-59
2023/06/30 09:56:20;;;;;;;22.57;21.80;;;22.20;74.60;;;;;;5034300;28;20539;-59
2023/06/30 09:58:47;;;;;;;23.90;23.00;;;22.20;74.10;;;;;;5034462;28;20443;-58
2023/06/30 10:01:20;;;;;;;24.17;23.27;;;22.20;73.90;;;;;;5034361;28;20445;-57
2023/06/30 10:03:48;;;;;;;23.07;22.27;;;22.30;74.00;;;;;;5034195;28;20847;-62
2023/06/30 10:06:17;;;;;;;22.80;22.00;;;22.30;73.80;;;;;;5034244;28;20445;-62
2023/06/30 10:08:44;;;;;;;23.73;22.83;;;22.30;73.00;;;;;;5034181;28;20491;-62
2023/06/30 10:11:11;;;;;;;22.97;22.03;;;22.30;72.30;;;;;;5034228;28;20524;-62
2023/06/30 10:13:40;;;;;;;23.17;22.27;;;22.30;71.30;;;;;;5033339;28;20563;-62
2023/06/30 10:16:09;;;;;;;26.70;25.07;;;22.30;70.80;;;;;;5033945;28;20449;-62
2023/06/30 10:18:42;;;;;;;23.37;22.57;;;22.30;70.70;;;;;;5034062;28;20540;-62
2023/06/30 10:21:09;;;;;;;22.53;21.73;;;22.30;70.30;;;;;;5034055;28;20539;-62
2023/06/30 10:23:38;;;;;;;22.50;21.70;;;22.30;69.80;;;;;;5033891;28;20551;-62
2023/06/30 10:26:07;;;;;;;23.10;22.10;;;22.30;69.90;;;;;;5033746;28;20476;-62
2023/06/30 10:28:35;;;;;;;23.30;22.50;;;22.30;69.40;;;;;;5033829;28;21003;-58
2023/06/30 10:31:03;;;;;;;23.13;22.33;;;22.30;69.00;;;;;;5033882;28;20456;-61
2023/06/30 10:33:30;;;;;;;22.70;21.90;;;22.30;68.60;;;;;;5033770;28;21063;-61
2023/06/30 10:35:59;;;;;;;22.77;21.97;;;22.30;68.30;;;;;;5033848;28;20587;-62
2023/06/30 10:38:27;;;;;;;23.23;22.43;;;22.40;67.70;;;;;;5033599;28;21011;-59
2023/06/30 10:41:12;;;;;;;23.53;22.70;;;22.40;67.20;;;;;;5033722;28;21015;-59
2023/06/30 10:44:06;;;;;;;23.13;22.33;;;22.40;67.50;;;;;;5033604;28;20489;-59
2023/06/30 10:46:53;;;;;;;22.30;21.60;;;22.40;67.90;;;;;;5033363;28;20448;-61
2023/06/30 10:49:23;;;;;;;22.90;22.20;;;22.40;68.30;;;;;;5033558;28;20940;-61
2023/06/30 10:51:52;;;;;;;23.87;23.07;;;22.40;67.90;;;;;;5033766;28;20843;-61
2023/06/30 10:54:24;;;;;;;22.90;22.10;;;22.40;67.20;;;;;;5033513;28;20891;-61
2023/06/30 10:56:52;;;;;;;23.27;22.47;;;22.40;67.10;;;;;;5033291;28;20477;-61
2023/06/30 10:59:22;;;;;;;23.90;23.00;;;22.40;66.80;;;;;;5033390;28;20537;-61
2023/06/30 11:02:12;;;;;;;23.90;23.00;;;22.40;66.40;;;;;;5033418;28;20807;-62
2023/06/30 11:04:39;;;;;;;23.80;23.00;;;22.40;66.40;;;;;;5035363;28;20473;-63
2023/06/30 11:07:10;;;;;;;23.27;22.17;;;22.50;67.00;;;;;;5043997;28;20548;-59
2023/06/30 11:09:59;;;;;;;23.87;22.87;;;22.50;67.00;;;;;;5033150;28;20518;-60
2023/06/30 11:12:28;;;;;;;24.50;23.37;;;22.60;66.50;;;;;;5044342;28;20488;-59
2023/06/30 11:14:56;;;;;;;24.17;23.13;;;22.60;66.40;;;;;;5033015;28;20476;-62
2023/06/30 11:17:24;;;;;;;23.07;22.20;;;22.70;65.70;;;;;;5035940;28;20445;-59
2023/06/30 11:19:59;;;;;;;23.17;22.37;;;22.70;65.90;;;;;;5034406;28;20524;-59
2023/06/30 11:22:31;;;;;;;23.70;22.70;;;22.70;64.80;;;;;;5034009;28;20436;-59
2023/06/30 11:24:58;;;;;;;24.80;24.00;;;22.80;64.90;;;;;;5033611;28;20834;-60
2023/06/30 11:27:30;;;;;;;24.10;23.00;;;22.80;64.70;;;;;;5033159;28;20477;-59
2023/06/30 11:29:59;;;;;;;22.60;21.80;;;22.80;64.20;;;;;;5033908;28;20625;-58
2023/06/30 11:32:26;;;;;;;22.73;21.93;;;22.90;64.10;;;;;;5033986;28;21110;-59
2023/06/30 11:34:55;;;;;;;23.53;22.47;;;22.90;64.00;;;;;;5033404;28;20555;-60
2023/06/30 11:37:22;;;;;;;25.57;24.57;;;22.90;63.90;;;;;;5032732;28;20488;-57
2023/06/30 11:39:53;;;;;;;23.93;22.93;;;23.00;64.20;;;;;;5032678;28;21035;-61
2023/06/30 11:42:21;;;;;;;23.90;22.77;;;23.00;63.60;;;;;;5032541;28;20857;-61
2023/06/30 11:44:49;;;;;;;24.33;23.43;;;23.10;63.80;;;;;;5032232;28;20552;-61
2023/06/30 11:47:17;;;;;;;23.40;22.40;;;23.10;63.90;;;;;;5042693;28;20444;-62
2023/06/30 11:49:44;;;;;;;22.97;22.07;;;23.20;63.90;;;;;;5052320;28;20456;-62
2023/06/30 11:52:11;;;;;;;23.23;22.27;;;23.20;63.60;;;;;;5052244;28;20907;-60
2023/06/30 11:54:38;;;;;;;22.60;21.80;;;23.20;63.50;;;;;;5052151;28;20563;-62
2023/06/30 11:57:06;;;;;;;22.93;22.13;;;23.30;63.60;;;;;;5051473;28;20487;-64
2023/06/30 11:59:33;;;;;;;23.60;22.70;;;23.30;64.40;;;;;;5052057;28;20535;-64
2023/06/30 12:02:01;;;;;;;22.40;21.50;;;23.30;63.90;;;;;;5052128;28;20852;-64
2023/06/30 12:04:34;;;;;;;24.70;23.73;;;23.30;63.10;;;;;;5051365;28;20878;-63
2023/06/30 12:07:02;;;;;;;24.33;23.53;;;23.40;63.00;;;;;;5031915;28;20464;-64
2023/06/30 12:09:29;;;;;;;23.03;22.23;;;23.40;61.80;;;;;;5032018;28;20467;-63
2023/06/30 12:11:56;;;;;;;24.80;23.80;;;23.40;62.00;;;;;;5031920;28;20540;-60
2023/06/30 12:14:26;;;;;;;23.93;22.90;;;23.40;60.90;;;;;;5044849;28;20468;-61
2023/06/30 12:16:53;;;;;;;23.97;23.13;;;23.40;60.70;;;;;;5051519;28;20506;-61
2023/06/30 12:19:25;;;;;;;25.00;24.00;;;23.40;60.80;;;;;;5051863;28;20472;-61
2023/06/30 12:21:53;;;;;;;24.20;23.20;;;23.50;61.60;;;;;;5051799;28;20523;-61
2023/06/30 12:24:21;;;;;;;25.73;24.70;;;23.50;60.80;;;;;;5038741;28;20553;-61
2023/06/30 12:26:49;;;;;;;24.47;23.57;;;23.50;61.80;;;;;;5031607;28;20456;-61
2023/06/30 12:29:17;;;;;;;26.63;25.43;;;23.50;61.70;;;;;;5031686;28;20601;-60
2023/06/30 12:31:47;;;;;;;26.77;25.63;;;23.50;60.10;;;;;;5031681;28;20455;-62
2023/06/30 12:34:14;;;;;;;23.90;23.10;;;23.60;61.00;;;;;;5042165;28;20476;-64